Terminal Aerodrome Forecast
Issued by NWS Bismarck, ND

Home | Current Version | Previous Version | Graphics & Text | Print | Product List | Glossary On
Versions: 1 2 3 4 5 6 7 8 9 10 11 12 13 14 15 16
000
FTUS43 KBIS 190527
TAFISN
TAF
KISN 190527Z 1906/2006 14013KT P6SM FEW120 WS020/16040KT
     FM191100 12007KT P6SM VCSH OVC110
     FM191500 26009KT P6SM BKN100
     FM200300 25005KT P6SM SCT200=

USA.gov is the U.S. government's official web portal to all federal, state and local government web resources and services.